createdAt,value
2015-05-02T00:00:07.997Z,94683
2015-05-02T00:00:26.391Z,94691
2015-05-02T00:00:45.313Z,94694
2015-05-02T00:01:03.984Z,94688
2015-05-02T00:01:22.393Z,94688
2015-05-02T00:01:40.924Z,94683
2015-05-02T00:01:59.455Z,94680
2015-05-02T00:02:18.096Z,94680
2015-05-02T00:02:36.848Z,94682
2015-05-02T00:02:55.426Z,94679
2015-05-02T00:03:14.285Z,94690
2015-05-02T00:03:32.757Z,94695
2015-05-02T00:03:51.195Z,94694
2015-05-02T00:04:09.585Z,94688
2015-05-02T00:04:28.182Z,94694
2015-05-02T00:04:46.823Z,94680
2015-05-02T00:05:05.229Z,94690
2015-05-02T00:05:23.791Z,94690
2015-05-02T00:05:42.262Z,94682
2015-05-02T00:06:00.793Z,94689
2015-05-02T00:06:19.200Z,94688
2015-05-02T00:06:37.795Z,94691
2015-05-02T00:06:56.389Z,94680
2015-05-02T00:07:14.780Z,94683
2015-05-02T00:07:33.233Z,94685
2015-05-02T00:07:51.736Z,94676
2015-05-02T00:08:10.158Z,94685
2015-05-02T00:08:28.751Z,94679
2015-05-02T00:08:47.378Z,94667
2015-05-02T00:09:05.785Z,94664
2015-05-02T00:09:24.378Z,94664
2015-05-02T00:09:42.818Z,94662
2015-05-02T00:10:01.209Z,94660
2015-05-02T00:10:19.834Z,94673
2015-05-02T00:10:38.349Z,94672
2015-05-02T00:10:56.977Z,94664
2015-05-02T00:11:15.477Z,94668
2015-05-02T00:11:33.899Z,94683
2015-05-02T00:11:52.464Z,94673
2015-05-02T00:12:10.995Z,94673
2015-05-02T00:12:29.385Z,94677
2015-05-02T00:12:47.856Z,94680
2015-05-02T00:13:06.669Z,94678
2015-05-02T00:13:24.716Z,94681
2015-05-02T00:13:43.281Z,94678
2015-05-02T00:14:01.922Z,94679
2015-05-02T00:14:20.437Z,94673
2015-05-02T00:14:38.844Z,94673
2015-05-02T00:14:57.517Z,94668
2015-05-02T00:15:16.017Z,94679
2015-05-02T00:15:34.533Z,94681
2015-05-02T00:15:53.035Z,94667
2015-05-02T00:16:11.504Z,94675
2015-05-02T00:16:30.098Z,94678
2015-05-02T00:16:48.632Z,94683
2015-05-02T00:17:07.116Z,94677
2015-05-02T00:17:25.507Z,94682
2015-05-02T00:17:44.116Z,94665
2015-05-02T00:18:02.571Z,94673
2015-05-02T00:18:21.243Z,94669
2015-05-02T00:18:39.915Z,94660
2015-05-02T00:18:58.495Z,94668
2015-05-02T00:19:17.073Z,94662
2015-05-02T00:19:35.495Z,94670
2015-05-02T00:19:53.951Z,94667
2015-05-02T00:20:12.451Z,94666
2015-05-02T00:20:31.045Z,94660
2015-05-02T00:20:49.608Z,94666
2015-05-02T00:21:08.078Z,94673
2015-05-02T00:21:26.641Z,94667
2015-05-02T00:21:45.094Z,94667
2015-05-02T00:22:03.659Z,94672
2015-05-02T00:22:22.066Z,94666
2015-05-02T00:22:40.488Z,94666
2015-05-02T00:22:58.974Z,94666
2015-05-02T00:23:17.568Z,94668
2015-05-02T00:23:36.099Z,94664
2015-05-02T00:23:54.521Z,94670
2015-05-02T00:24:13.211Z,94675
2015-05-02T00:24:31.680Z,94678
2015-05-02T00:24:50.086Z,94671
2015-05-02T00:25:08.541Z,94674
2015-05-02T00:25:26.979Z,94677
2015-05-02T00:25:45.385Z,94674
2015-05-02T00:26:03.887Z,94673
2015-05-02T00:26:22.543Z,94676
2015-05-02T00:26:41.012Z,94676
2015-05-02T00:26:59.465Z,94670
2015-05-02T00:27:18.061Z,94667
2015-05-02T00:27:36.686Z,94672
2015-05-02T00:27:55.139Z,94669
2015-05-02T00:28:13.580Z,94672
2015-05-02T00:28:32.595Z,94680
2015-05-02T00:28:51.048Z,94671
2015-05-02T00:29:09.566Z,94676
2015-05-02T00:29:28.207Z,94673
2015-05-02T00:29:46.597Z,94670
2015-05-02T00:30:05.254Z,94673
2015-05-02T00:30:23.819Z,94673
2015-05-02T00:30:42.288Z,94669
2015-05-02T00:31:00.757Z,94672
2015-05-02T00:31:19.619Z,94675
2015-05-02T00:31:38.228Z,94680
2015-05-02T00:31:56.806Z,94690
2015-05-02T00:32:15.619Z,94680
2015-05-02T00:32:34.137Z,94677
2015-05-02T00:32:52.777Z,94682
2015-05-02T00:33:11.433Z,94676
2015-05-02T00:33:29.935Z,94682
2015-05-02T00:33:48.326Z,94684
2015-05-02T00:34:06.920Z,94684
2015-05-02T00:34:25.375Z,94678
2015-05-02T00:34:43.891Z,94669
2015-05-02T00:35:02.422Z,94681
2015-05-02T00:35:20.875Z,94678
2015-05-02T00:35:39.721Z,94683
2015-05-02T00:35:58.143Z,94693
2015-05-02T00:36:16.705Z,94690
2015-05-02T00:36:35.177Z,94677
2015-05-02T00:36:53.771Z,94693
2015-05-02T00:37:12.177Z,94693
2015-05-02T00:37:30.804Z,94685
2015-05-02T00:37:49.194Z,94685
2015-05-02T00:38:07.694Z,94689
2015-05-02T00:38:26.104Z,94682
2015-05-02T00:38:44.526Z,94682
2015-05-02T00:39:02.947Z,94684
2015-05-02T00:39:20.744Z,94689
2015-05-02T00:39:39.434Z,94681
2015-05-02T00:39:57.824Z,94684
2015-05-02T00:40:16.231Z,94684
2015-05-02T00:40:34.748Z,94678
2015-05-02T00:40:53.217Z,94684
2015-05-02T00:41:11.608Z,94675
2015-05-02T00:41:30.063Z,94688
2015-05-02T00:41:48.469Z,94677
2015-05-02T00:42:07.000Z,94680
2015-05-02T00:42:25.453Z,94691
2015-05-02T00:42:43.956Z,94683
2015-05-02T00:43:02.347Z,94688
2015-05-02T00:43:20.769Z,94690
2015-05-02T00:43:39.208Z,94690
2015-05-02T00:43:57.693Z,94701
2015-05-02T00:44:16.099Z,94679
2015-05-02T00:44:34.523Z,94690
2015-05-02T00:44:52.960Z,94690
2015-05-02T00:45:11.351Z,94693
2015-05-02T00:45:29.882Z,94690
2015-05-02T00:45:48.307Z,94690
2015-05-02T00:46:06.729Z,94695
2015-05-02T00:46:25.120Z,94701
2015-05-02T00:46:43.528Z,94695
2015-05-02T00:47:02.090Z,94695
2015-05-02T00:47:20.481Z,94695
2015-05-02T00:47:39.092Z,94692
2015-05-02T00:47:57.499Z,94695
2015-05-02T00:48:15.936Z,94698
2015-05-02T00:48:34.436Z,94701
2015-05-02T00:48:53.021Z,94698
2015-05-02T00:49:11.443Z,94695
2015-05-02T00:49:29.834Z,94692
2015-05-02T00:49:48.472Z,94692
2015-05-02T00:50:06.941Z,94706
2015-05-02T00:50:25.362Z,94692
2015-05-02T00:50:43.893Z,94700
2015-05-02T00:51:02.596Z,94695
2015-05-02T00:51:21.002Z,94692
2015-05-02T00:51:39.471Z,94697
2015-05-02T00:51:58.015Z,94692
2015-05-02T00:52:16.547Z,94697
2015-05-02T00:52:35.078Z,94697
2015-05-02T00:52:53.514Z,94708
2015-05-02T00:53:12.108Z,94705
2015-05-02T00:53:30.561Z,94702
2015-05-02T00:53:49.072Z,94705
2015-05-02T00:54:07.650Z,94700
2015-05-02T00:54:26.072Z,94705
2015-05-02T00:54:44.478Z,94697
2015-05-02T00:55:03.359Z,94694
2015-05-02T00:55:21.968Z,94699
2015-05-02T00:55:40.484Z,94711
2015-05-02T00:55:58.883Z,94699
2015-05-02T00:56:17.289Z,94702
2015-05-02T00:56:35.679Z,94708
2015-05-02T00:56:54.117Z,94711
2015-05-02T00:57:12.717Z,94696
2015-05-02T00:57:31.310Z,94699
2015-05-02T00:57:49.779Z,94702
2015-05-02T00:58:08.225Z,94711
2015-05-02T00:58:26.725Z,94699
2015-05-02T00:58:45.115Z,94707
2015-05-02T00:59:03.522Z,94710
2015-05-02T00:59:21.947Z,94710
2015-05-02T00:59:40.541Z,94702
2015-05-02T00:59:59.104Z,94704
2015-05-02T01:00:17.608Z,94707
2015-05-02T01:00:36.030Z,94710
2015-05-02T01:00:54.498Z,94716
2015-05-02T01:01:12.972Z,94710
2015-05-02T01:01:31.378Z,94716
2015-05-02T01:01:49.128Z,94713
2015-05-02T01:02:07.613Z,94701
2015-05-02T01:02:26.256Z,94698
2015-05-02T01:02:44.741Z,94701
2015-05-02T01:03:03.272Z,94704
2015-05-02T01:03:21.824Z,94710
2015-05-02T01:03:40.246Z,94724
2015-05-02T01:03:58.683Z,94715
2015-05-02T01:04:17.277Z,94715
2015-05-02T01:04:35.780Z,94712
2015-05-02T01:04:54.171Z,94710
2015-05-02T01:05:12.780Z,94709
2015-05-02T01:05:31.188Z,94715
2015-05-02T01:05:49.735Z,94715
2015-05-02T01:06:08.173Z,94712
2015-05-02T01:06:26.956Z,94718
2015-05-02T01:06:45.550Z,94718
2015-05-02T01:07:03.971Z,94721
2015-05-02T01:07:22.487Z,94724
2015-05-02T01:07:40.960Z,94712
2015-05-02T01:07:59.429Z,94718
2015-05-02T01:08:17.882Z,94721
2015-05-02T01:08:36.415Z,94730
2015-05-02T01:08:54.806Z,94724
2015-05-02T01:09:13.337Z,94732
2015-05-02T01:09:31.762Z,94721
2015-05-02T01:09:50.215Z,94726
2015-05-02T01:10:08.605Z,94721
2015-05-02T01:10:27.043Z,94726
2015-05-02T01:10:45.593Z,94732
2015-05-02T01:11:04.155Z,94732
2015-05-02T01:11:22.812Z,94729
2015-05-02T01:11:41.705Z,94726
2015-05-02T01:12:00.190Z,94737
2015-05-02T01:12:18.768Z,94723
2015-05-02T01:12:37.582Z,94734
2015-05-02T01:12:56.035Z,94734
2015-05-02T01:13:14.504Z,94732
2015-05-02T01:13:33.116Z,94732
2015-05-02T01:13:51.866Z,94740
2015-05-02T01:14:10.382Z,94735
2015-05-02T01:14:28.991Z,94732
2015-05-02T01:14:47.431Z,94740
2015-05-02T01:15:06.072Z,94740
2015-05-02T01:15:24.603Z,94735
2015-05-02T01:15:43.183Z,94749
2015-05-02T01:16:01.652Z,94737
2015-05-02T01:16:20.167Z,94732
2015-05-02T01:16:38.733Z,94732
2015-05-02T01:16:57.405Z,94735
2015-05-02T01:17:15.936Z,94737
2015-05-02T01:17:34.436Z,94737
2015-05-02T01:17:52.939Z,94737
2015-05-02T01:18:11.501Z,94737
2015-05-02T01:18:30.048Z,94743
2015-05-02T01:18:48.550Z,94740
2015-05-02T01:19:06.941Z,94743
2015-05-02T01:19:25.535Z,94737
2015-05-02T01:19:44.396Z,94745
2015-05-02T01:20:03.115Z,94740
2015-05-02T01:20:21.662Z,94737
2015-05-02T01:20:40.212Z,94737
2015-05-02T01:20:58.805Z,94748
2015-05-02T01:21:17.383Z,94742
2015-05-02T01:21:35.774Z,94751
2015-05-02T01:21:54.181Z,94739
2015-05-02T01:22:12.666Z,94731
2015-05-02T01:22:31.259Z,94739
2015-05-02T01:22:49.841Z,94739
2015-05-02T01:23:08.231Z,94742
2015-05-02T01:23:26.747Z,94739
2015-05-02T01:23:45.608Z,94739
2015-05-02T01:24:04.233Z,94739
2015-05-02T01:24:22.655Z,94744
2015-05-02T01:24:41.139Z,94739
2015-05-02T01:24:59.627Z,94739
2015-05-02T01:25:18.408Z,94738
2015-05-02T01:25:37.064Z,94735
2015-05-02T01:25:55.738Z,94738
2015-05-02T01:26:14.488Z,94735
2015-05-02T01:26:32.910Z,94747
2015-05-02T01:26:51.316Z,94738
2015-05-02T01:27:09.741Z,94735
2015-05-02T01:27:28.288Z,94744
2015-05-02T01:27:46.819Z,94749
2015-05-02T01:28:05.431Z,94752
2015-05-02T01:28:23.978Z,94746
2015-05-02T01:28:42.649Z,94749
2015-05-02T01:29:01.118Z,94746
2015-05-02T01:29:19.856Z,94749
2015-05-02T01:29:38.527Z,94743
2015-05-02T01:29:57.027Z,94734
2015-05-02T01:30:15.654Z,94740
2015-05-02T01:30:34.248Z,94745
2015-05-02T01:30:52.748Z,94745
2015-05-02T01:31:11.219Z,94748
2015-05-02T01:31:29.656Z,94754
2015-05-02T01:31:48.219Z,94748
2015-05-02T01:32:06.656Z,94745
2015-05-02T01:32:25.034Z,94745
2015-05-02T01:32:43.300Z,94742
2015-05-02T01:33:01.941Z,94742
2015-05-02T01:33:20.568Z,94739
2015-05-02T01:33:39.083Z,94748
2015-05-02T01:33:57.708Z,94748
2015-05-02T01:34:16.382Z,94736
2015-05-02T01:34:34.945Z,94744
2015-05-02T01:34:53.523Z,94742
2015-05-02T01:35:11.916Z,94739
2015-05-02T01:35:30.323Z,94747
2015-05-02T01:35:48.854Z,94744
2015-05-02T01:36:07.307Z,94739
2015-05-02T01:36:25.731Z,94741
2015-05-02T01:36:44.122Z,94741
2015-05-02T01:37:02.653Z,94747
2015-05-02T01:37:21.045Z,94744
2015-05-02T01:37:39.139Z,94744
2015-05-02T01:37:57.686Z,94744
2015-05-02T01:38:16.360Z,94741
2015-05-02T01:38:35.188Z,94744
2015-05-02T01:38:53.735Z,94738
2015-05-02T01:39:12.157Z,94744
2015-05-02T01:39:30.629Z,94747
2015-05-02T01:39:49.207Z,94735
2015-05-02T01:40:07.644Z,94752
2015-05-02T01:40:26.288Z,94747
2015-05-02T01:40:44.741Z,94747
2015-05-02T01:41:03.491Z,94752
2015-05-02T01:41:21.884Z,94749
2015-05-02T01:41:40.415Z,94743
2015-05-02T01:41:59.102Z,94749
2015-05-02T01:42:17.729Z,94749
2015-05-02T01:42:36.261Z,94743
2015-05-02T01:42:54.729Z,94746
2015-05-02T01:43:13.354Z,94755
2015-05-02T01:43:31.920Z,94752
2015-05-02T01:43:50.420Z,94763
2015-05-02T01:44:08.810Z,94757
2015-05-02T01:44:27.359Z,94760
2015-05-02T01:44:46.109Z,94757
2015-05-02T01:45:04.734Z,94760
2015-05-02T01:45:23.330Z,94760
2015-05-02T01:45:41.814Z,94754
2015-05-02T01:46:00.330Z,94760
2015-05-02T01:46:19.049Z,94754
2015-05-02T01:46:37.520Z,94757
2015-05-02T01:46:56.098Z,94762
2015-05-02T01:47:14.816Z,94748
2015-05-02T01:47:33.304Z,94762
2015-05-02T01:47:51.773Z,94757
2015-05-02T01:48:10.398Z,94762
2015-05-02T01:48:28.804Z,94768
2015-05-02T01:48:47.353Z,94762
2015-05-02T01:49:05.978Z,94768
2015-05-02T01:49:24.587Z,94762
2015-05-02T01:49:43.371Z,94762
2015-05-02T01:50:01.809Z,94762
2015-05-02T01:50:20.278Z,94759
2015-05-02T01:50:38.873Z,94765
2015-05-02T01:50:57.264Z,94765
2015-05-02T01:51:15.686Z,94759
2015-05-02T01:51:34.155Z,94768
2015-05-02T01:51:52.658Z,94768
2015-05-02T01:52:11.111Z,94762
2015-05-02T01:52:29.673Z,94765
2015-05-02T01:52:48.192Z,94765
2015-05-02T01:53:06.598Z,94762
2015-05-02T01:53:25.129Z,94762
2015-05-02T01:53:43.598Z,94765
2015-05-02T01:54:02.163Z,94771
2015-05-02T01:54:20.584Z,94773
2015-05-02T01:54:38.991Z,94770
2015-05-02T01:54:57.508Z,94765
2015-05-02T01:55:16.071Z,94765
2015-05-02T01:55:34.524Z,94765
2015-05-02T01:55:53.167Z,94762
2015-05-02T01:56:11.807Z,94756
2015-05-02T01:56:30.213Z,94762
2015-05-02T01:56:48.604Z,94756
2015-05-02T01:57:07.123Z,94759
2015-05-02T01:57:25.841Z,94753
2015-05-02T01:57:44.232Z,94756
2015-05-02T01:58:02.906Z,94764
2015-05-02T01:58:21.500Z,94750
2015-05-02T01:58:40.047Z,94764
2015-05-02T01:58:58.767Z,94753
2015-05-02T01:59:17.158Z,94753
2015-05-02T01:59:35.595Z,94761
2015-05-02T01:59:53.332Z,94767
2015-05-02T02:00:11.816Z,94770
2015-05-02T02:00:30.457Z,94764
2015-05-02T02:00:48.847Z,94764
2015-05-02T02:01:07.241Z,94761
2015-05-02T02:01:25.850Z,94770
2015-05-02T02:01:44.257Z,94772
2015-05-02T02:02:02.696Z,94761
2015-05-02T02:02:21.071Z,94766
2015-05-02T02:02:39.665Z,94761
2015-05-02T02:02:58.339Z,94758
2015-05-02T02:03:16.792Z,94777
2015-05-02T02:03:35.167Z,94766
2015-05-02T02:03:53.573Z,94766
2015-05-02T02:04:12.061Z,94777
2015-05-02T02:04:30.498Z,94769
2015-05-02T02:04:48.889Z,94780
2015-05-02T02:05:07.610Z,94780
2015-05-02T02:05:26.095Z,94769
2015-05-02T02:05:44.720Z,94780
2015-05-02T02:06:03.394Z,94780
2015-05-02T02:06:21.222Z,94788
2015-05-02T02:06:39.800Z,94785
2015-05-02T02:06:58.284Z,94777
2015-05-02T02:07:16.880Z,94780
2015-05-02T02:07:35.396Z,94777
2015-05-02T02:07:54.068Z,94777
2015-05-02T02:08:12.710Z,94785
2015-05-02T02:08:31.288Z,94768
2015-05-02T02:08:49.695Z,94785
2015-05-02T02:09:08.135Z,94774
2015-05-02T02:09:26.666Z,94777
2015-05-02T02:09:45.119Z,94782
2015-05-02T02:10:03.760Z,94777
2015-05-02T02:10:22.200Z,94774
2015-05-02T02:10:40.621Z,94785
2015-05-02T02:10:59.262Z,94779
2015-05-02T02:11:17.920Z,94777
2015-05-02T02:11:36.608Z,94779
2015-05-02T02:11:55.483Z,94779
2015-05-02T02:12:13.892Z,94774
2015-05-02T02:12:32.486Z,94782
2015-05-02T02:12:50.970Z,94776
2015-05-02T02:13:09.564Z,94782
2015-05-02T02:13:28.050Z,94779
2015-05-02T02:13:46.644Z,94779
2015-05-02T02:14:05.082Z,94779
2015-05-02T02:14:23.475Z,94782
2015-05-02T02:14:41.975Z,94782
2015-05-02T02:15:00.381Z,94776
2015-05-02T02:15:18.790Z,94776
2015-05-02T02:15:37.446Z,94779
2015-05-02T02:15:56.071Z,94776
2015-05-02T02:16:14.477Z,94788
2015-05-02T02:16:32.918Z,94776
2015-05-02T02:16:51.402Z,94776
2015-05-02T02:17:09.855Z,94779
2015-05-02T02:17:28.592Z,94782
2015-05-02T02:17:47.107Z,94779
2015-05-02T02:18:05.763Z,94776
2015-05-02T02:18:24.250Z,94773
2015-05-02T02:18:42.687Z,94779
2015-05-02T02:19:01.156Z,94773
2015-05-02T02:19:19.640Z,94770
2015-05-02T02:19:38.143Z,94770
2015-05-02T02:19:56.518Z,94779
2015-05-02T02:20:14.925Z,94779
2015-05-02T02:20:33.333Z,94784
2015-05-02T02:20:51.067Z,94767
2015-05-02T02:21:09.489Z,94770
2015-05-02T02:21:27.942Z,94773
2015-05-02T02:21:46.352Z,94767
2015-05-02T02:22:04.758Z,94776
2015-05-02T02:22:23.180Z,94770
2015-05-02T02:22:41.572Z,94773
2015-05-02T02:23:00.025Z,94770
2015-05-02T02:23:18.447Z,94776
2015-05-02T02:23:37.072Z,94771
2015-05-02T02:23:55.560Z,94774
2015-05-02T02:24:14.044Z,94768
2015-05-02T02:24:32.669Z,94765
2015-05-02T02:24:51.234Z,94776
2015-05-02T02:25:09.624Z,94773
2015-05-02T02:25:28.312Z,94771
2015-05-02T02:25:46.890Z,94774
2015-05-02T02:26:05.643Z,94774
2015-05-02T02:26:24.237Z,94776
2015-05-02T02:26:42.643Z,94773
2015-05-02T02:27:01.239Z,94771
2015-05-02T02:27:19.629Z,94774
2015-05-02T02:27:38.114Z,94782
2015-05-02T02:27:56.600Z,94782
2015-05-02T02:28:15.116Z,94782
2015-05-02T02:28:33.600Z,94791
2015-05-02T02:28:52.053Z,94776
2015-05-02T02:29:10.555Z,94777
2015-05-02T02:29:28.961Z,94782
2015-05-02T02:29:47.555Z,94774
2015-05-02T02:30:06.136Z,94785
2015-05-02T02:30:24.574Z,94791
2015-05-02T02:30:43.058Z,94785
2015-05-02T02:31:01.654Z,94785
2015-05-02T02:31:20.341Z,94783
2015-05-02T02:31:38.732Z,94791
2015-05-02T02:31:57.376Z,94788
2015-05-02T02:32:16.126Z,94791
2015-05-02T02:32:34.751Z,94786
2015-05-02T02:32:52.641Z,94783
2015-05-02T02:33:11.048Z,94791
2015-05-02T02:33:29.689Z,94791
2015-05-02T02:33:48.173Z,94783
2015-05-02T02:34:06.692Z,94783
2015-05-02T02:34:25.083Z,94795
2015-05-02T02:34:43.567Z,94798
2015-05-02T02:35:01.960Z,94784
2015-05-02T02:35:20.585Z,94784
2015-05-02T02:35:39.132Z,94784
2015-05-02T02:35:57.725Z,94787
2015-05-02T02:36:16.228Z,94798
2015-05-02T02:36:34.822Z,94789
2015-05-02T02:36:53.541Z,94792
2015-05-02T02:37:12.074Z,94781
2015-05-02T02:37:30.480Z,94792
2015-05-02T02:37:48.965Z,94787
2015-05-02T02:38:07.390Z,94789
2015-05-02T02:38:25.780Z,94787
2015-05-02T02:38:44.640Z,94803
2015-05-02T02:39:03.108Z,94789
2015-05-02T02:39:21.626Z,94800
2015-05-02T02:39:41.235Z,94789
2015-05-02T02:40:00.095Z,94792
2015-05-02T02:40:19.034Z,94795
2015-05-02T02:40:36.894Z,94803
2015-05-02T02:40:55.565Z,94789
2015-05-02T02:41:13.459Z,94789
2015-05-02T02:41:32.147Z,94804
2015-05-02T02:41:50.537Z,94790
2015-05-02T02:42:09.193Z,94799
2015-05-02T02:42:27.712Z,94790
2015-05-02T02:42:46.181Z,94796
2015-05-02T02:43:04.603Z,94802
2015-05-02T02:43:23.183Z,94802
2015-05-02T02:43:41.573Z,94793
2015-05-02T02:44:00.136Z,94793
2015-05-02T02:44:18.620Z,94782
2015-05-02T02:44:37.325Z,94790
2015-05-02T02:44:55.732Z,94793
2015-05-02T02:45:14.388Z,94799
2015-05-02T02:45:32.828Z,94799
2015-05-02T02:45:51.282Z,94796
2015-05-02T02:46:09.969Z,94801
2015-05-02T02:46:28.487Z,94799
2015-05-02T02:46:46.924Z,94801
2015-05-02T02:47:05.721Z,94790
2015-05-02T02:47:24.268Z,94801
2015-05-02T02:47:42.724Z,94795
2015-05-02T02:48:01.240Z,94790
2015-05-02T02:48:19.833Z,94801
2015-05-02T02:48:38.257Z,94793
2015-05-02T02:48:56.929Z,94801
2015-05-02T02:49:15.320Z,94807
2015-05-02T02:49:33.726Z,94801
2015-05-02T02:49:52.384Z,94804
2015-05-02T02:50:10.884Z,94804
2015-05-02T02:50:29.431Z,94807
2015-05-02T02:50:47.950Z,94804
2015-05-02T02:51:06.372Z,94807
2015-05-02T02:51:24.903Z,94813
2015-05-02T02:51:43.592Z,94807
2015-05-02T02:52:02.171Z,94813
2015-05-02T02:52:20.608Z,94807
2015-05-02T02:52:39.249Z,94818
2015-05-02T02:52:57.844Z,94807
2015-05-02T02:53:16.266Z,94813
2015-05-02T02:53:34.766Z,94818
2015-05-02T02:53:53.268Z,94818
2015-05-02T02:54:11.768Z,94815
2015-05-02T02:54:30.471Z,94821
2015-05-02T02:54:49.099Z,94821
2015-05-02T02:55:07.584Z,94815
2015-05-02T02:55:26.224Z,94829
2015-05-02T02:55:44.884Z,94818
2015-05-02T02:56:03.399Z,94815
2015-05-02T02:56:22.040Z,94818
2015-05-02T02:56:40.681Z,94815
2015-05-02T02:56:59.120Z,94821
2015-05-02T02:57:17.558Z,94812
2015-05-02T02:57:36.120Z,94812
2015-05-02T02:57:54.716Z,94821
2015-05-02T02:58:13.372Z,94818
2015-05-02T02:58:31.872Z,94824
2015-05-02T02:58:50.296Z,94821
2015-05-02T02:59:08.749Z,94821
2015-05-02T02:59:27.265Z,94821
2015-05-02T02:59:45.749Z,94829
2015-05-02T03:00:04.315Z,94824
2015-05-02T03:00:22.815Z,94824
2015-05-02T03:00:41.236Z,94827
2015-05-02T03:00:59.848Z,94821
2015-05-02T03:01:18.317Z,94827
2015-05-02T03:01:36.926Z,94827
2015-05-02T03:01:55.491Z,94827
2015-05-02T03:02:13.929Z,94831
2015-05-02T03:02:32.507Z,94829
2015-05-02T03:02:51.070Z,94829
2015-05-02T03:03:09.743Z,94827
2015-05-02T03:03:28.415Z,94831
2015-05-02T03:03:46.806Z,94837
2015-05-02T03:04:05.481Z,94827
2015-05-02T03:04:23.903Z,94829
2015-05-02T03:04:42.325Z,94827
2015-05-02T03:05:00.983Z,94827
2015-05-02T03:05:19.780Z,94821
2015-05-02T03:05:38.467Z,94827
2015-05-02T03:05:57.313Z,94831
2015-05-02T03:06:15.782Z,94827
2015-05-02T03:06:34.250Z,94827
2015-05-02T03:06:52.766Z,94827
2015-05-02T03:07:11.424Z,94829
2015-05-02T03:07:29.815Z,94829
2015-05-02T03:07:48.424Z,94829
2015-05-02T03:08:07.005Z,94827
2015-05-02T03:08:25.380Z,94837
2015-05-02T03:08:44.146Z,94840
2015-05-02T03:09:02.757Z,94829
2015-05-02T03:09:21.132Z,94831
2015-05-02T03:09:39.617Z,94829
2015-05-02T03:09:58.211Z,94837
2015-05-02T03:10:16.604Z,94834
2015-05-02T03:10:34.995Z,94834
2015-05-02T03:10:53.417Z,94829
2015-05-02T03:11:11.841Z,94829
2015-05-02T03:11:30.278Z,94832
2015-05-02T03:11:49.012Z,94832
2015-05-02T03:12:07.653Z,94834
2015-05-02T03:12:26.406Z,94834
2015-05-02T03:12:44.875Z,94834
2015-05-02T03:13:03.265Z,94829
2015-05-02T03:13:21.846Z,94832
2015-05-02T03:13:39.596Z,94829
2015-05-02T03:13:58.111Z,94834
2015-05-02T03:14:16.627Z,94824
2015-05-02T03:14:35.051Z,94829
2015-05-02T03:14:53.441Z,94829
2015-05-02T03:15:11.879Z,94832
2015-05-02T03:15:30.428Z,94827
2015-05-02T03:15:49.053Z,94829
2015-05-02T03:16:07.615Z,94835
2015-05-02T03:16:26.196Z,94835
2015-05-02T03:16:44.868Z,94832
2015-05-02T03:17:03.462Z,94824
2015-05-02T03:17:22.040Z,94827
2015-05-02T03:17:40.606Z,94837
2015-05-02T03:17:59.059Z,94832
2015-05-02T03:18:17.652Z,94840
2015-05-02T03:18:36.420Z,94829
2015-05-02T03:18:55.154Z,94837
2015-05-02T03:19:13.889Z,94834
2015-05-02T03:19:32.531Z,94834
2015-05-02T03:19:51.063Z,94840
2015-05-02T03:20:09.750Z,94821
2015-05-02T03:20:28.269Z,94834
2015-05-02T03:20:47.003Z,94840
2015-05-02T03:21:05.409Z,94837
2015-05-02T03:21:23.925Z,94843
2015-05-02T03:21:42.458Z,94849
2015-05-02T03:22:00.958Z,94843
2015-05-02T03:22:19.724Z,94849
2015-05-02T03:22:38.585Z,94841
2015-05-02T03:22:57.210Z,94849
2015-05-02T03:23:15.726Z,94855
2015-05-02T03:23:34.197Z,94844
2015-05-02T03:23:53.119Z,94858
2015-05-02T03:24:11.556Z,94841
2015-05-02T03:24:29.949Z,94853
2015-05-02T03:24:48.417Z,94858
2015-05-02T03:25:07.261Z,94855
2015-05-02T03:25:25.792Z,94858
2015-05-02T03:25:44.232Z,94858
2015-05-02T03:26:02.654Z,94858
2015-05-02T03:26:21.201Z,94861
2015-05-02T03:26:39.798Z,94863
2015-05-02T03:26:58.345Z,94858
2015-05-02T03:27:16.752Z,94855
2015-05-02T03:27:35.502Z,94861
2015-05-02T03:27:53.972Z,94869
2015-05-02T03:28:12.488Z,94860
2015-05-02T03:28:30.879Z,94872
2015-05-02T03:28:49.599Z,94860
2015-05-02T03:29:08.287Z,94869
2015-05-02T03:29:26.818Z,94866
2015-05-02T03:29:45.211Z,94860
2015-05-02T03:30:03.726Z,94863
2015-05-02T03:30:22.242Z,94868
2015-05-02T03:30:40.851Z,94868
2015-05-02T03:30:59.386Z,94868
2015-05-02T03:31:18.182Z,94874
2015-05-02T03:31:36.776Z,94876
2015-05-02T03:31:55.544Z,94882
2015-05-02T03:32:14.231Z,94873
2015-05-02T03:32:32.888Z,94876
2015-05-02T03:32:51.500Z,94879
2015-05-02T03:33:10.266Z,94882
2015-05-02T03:33:28.922Z,94876
2015-05-02T03:33:47.766Z,94864
2015-05-02T03:34:06.236Z,94876
2015-05-02T03:34:24.955Z,94870
2015-05-02T03:34:43.471Z,94873
2015-05-02T03:35:01.896Z,94876
2015-05-02T03:35:20.458Z,94875
2015-05-02T03:35:38.849Z,94875
2015-05-02T03:35:57.506Z,94875
2015-05-02T03:36:16.272Z,94875
2015-05-02T03:36:34.678Z,94875
2015-05-02T03:36:53.068Z,94875
2015-05-02T03:37:11.603Z,94878
2015-05-02T03:37:30.134Z,94878
2015-05-02T03:37:48.556Z,94878
2015-05-02T03:38:07.137Z,94875
2015-05-02T03:38:25.543Z,94872
2015-05-02T03:38:44.074Z,94883
2015-05-02T03:39:02.811Z,94877
2015-05-02T03:39:21.248Z,94888
2015-05-02T03:39:39.967Z,94883
2015-05-02T03:39:58.578Z,94877
2015-05-02T03:40:17.235Z,94883
2015-05-02T03:40:36.125Z,94891
2015-05-02T03:40:54.532Z,94886
2015-05-02T03:41:13.080Z,94883
2015-05-02T03:41:31.784Z,94880
2015-05-02T03:41:50.346Z,94888
2015-05-02T03:42:09.005Z,94883
2015-05-02T03:42:27.677Z,94888
2015-05-02T03:42:46.130Z,94885
2015-05-02T03:43:04.898Z,94894
2015-05-02T03:43:23.445Z,94891
2015-05-02T03:43:42.039Z,94888
2015-05-02T03:44:00.541Z,94888
2015-05-02T03:44:19.119Z,94885
2015-05-02T03:44:37.728Z,94891
2015-05-02T03:44:56.291Z,94893
2015-05-02T03:45:15.043Z,94896
2015-05-02T03:45:33.714Z,94891
2015-05-02T03:45:52.105Z,94891
2015-05-02T03:46:10.530Z,94888
2015-05-02T03:46:29.014Z,94899
2015-05-02T03:46:47.780Z,94899
2015-05-02T03:47:06.532Z,94896
2015-05-02T03:47:25.094Z,94893
2015-05-02T03:47:43.579Z,94899
2015-05-02T03:48:02.360Z,94896
2015-05-02T03:48:20.832Z,94899
2015-05-02T03:48:39.597Z,94893
2015-05-02T03:48:58.488Z,94899
2015-05-02T03:49:16.990Z,94901
2015-05-02T03:49:35.521Z,94904
2015-05-02T03:49:54.068Z,94901
2015-05-02T03:50:12.884Z,94901
2015-05-02T03:50:31.446Z,94904
2015-05-02T03:50:49.977Z,94904
2015-05-02T03:51:08.618Z,94912
2015-05-02T03:51:27.340Z,94915
2015-05-02T03:51:45.965Z,94918
2015-05-02T03:52:04.559Z,94910
2015-05-02T03:52:22.967Z,94915
2015-05-02T03:52:41.404Z,94907
2015-05-02T03:52:59.936Z,94901
2015-05-02T03:53:18.826Z,94904
2015-05-02T03:53:37.328Z,94907
2015-05-02T03:53:55.906Z,94901
2015-05-02T03:54:14.313Z,94906
2015-05-02T03:54:32.925Z,94912
2015-05-02T03:54:51.566Z,94909
2015-05-02T03:55:09.972Z,94912
2015-05-02T03:55:29.081Z,94909
2015-05-02T03:55:47.740Z,94906
2015-05-02T03:56:06.397Z,94898
2015-05-02T03:56:24.975Z,94898
2015-05-02T03:56:43.649Z,94900
2015-05-02T03:57:02.446Z,94909
2015-05-02T03:57:20.961Z,94914
2015-05-02T03:57:39.557Z,94914
2015-05-02T03:57:58.073Z,94920
2015-05-02T03:58:16.494Z,94911
2015-05-02T03:58:34.996Z,94906